sensor_id;sensor_type;location;lat;lon;timestamp;P1;durP1;ratioP1;P2;durP2;ratioP2
21356;SDS011;10836;53.068;18.234;2023-09-19T00:00:47;30.60;;;22.33;;
21356;SDS011;10836;53.068;18.234;2023-09-19T00:03:35;30.83;;;21.30;;
21356;SDS011;10836;53.068;18.234;2023-09-19T00:06:05;26.30;;;20.80;;
21356;SDS011;10836;53.068;18.234;2023-09-19T00:08:34;31.27;;;21.70;;
21356;SDS011;10836;53.068;18.234;2023-09-19T00:11:02;28.17;;;21.92;;
21356;SDS011;10836;53.068;18.234;2023-09-19T00:13:33;36.75;;;22.77;;
21356;SDS011;10836;53.068;18.234;2023-09-19T00:16:09;30.00;;;20.80;;
21356;SDS011;10836;53.068;18.234;2023-09-19T00:18:41;35.28;;;21.77;;
21356;SDS011;10836;53.068;18.234;2023-09-19T00:21:09;28.58;;;20.70;;
21356;SDS011;10836;53.068;18.234;2023-09-19T00:23:37;30.02;;;21.58;;
21356;SDS011;10836;53.068;18.234;2023-09-19T00:26:04;32.28;;;20.77;;
21356;SDS011;10836;53.068;18.234;2023-09-19T00:28:31;28.25;;;21.45;;
21356;SDS011;10836;53.068;18.234;2023-09-19T00:30:59;30.88;;;21.92;;
21356;SDS011;10836;53.068;18.234;2023-09-19T00:33:30;28.15;;;20.30;;
21356;SDS011;10836;53.068;18.234;2023-09-19T00:35:58;27.63;;;21.08;;
21356;SDS011;10836;53.068;18.234;2023-09-19T00:38:25;30.48;;;20.80;;
21356;SDS011;10836;53.068;18.234;2023-09-19T00:40:54;27.90;;;20.75;;
21356;SDS011;10836;53.068;18.234;2023-09-19T00:43:26;27.73;;;20.75;;
21356;SDS011;10836;53.068;18.234;2023-09-19T00:45:55;32.28;;;22.17;;
21356;SDS011;10836;53.068;18.234;2023-09-19T00:48:24;27.65;;;19.80;;
21356;SDS011;10836;53.068;18.234;2023-09-19T00:50:57;30.42;;;20.73;;
21356;SDS011;10836;53.068;18.234;2023-09-19T00:53:28;26.42;;;20.75;;
21356;SDS011;10836;53.068;18.234;2023-09-19T00:55:57;26.08;;;20.63;;
21356;SDS011;10836;53.068;18.234;2023-09-19T00:58:24;28.48;;;20.90;;
21356;SDS011;10836;53.068;18.234;2023-09-19T01:00:52;30.40;;;20.50;;
21356;SDS011;10836;53.068;18.234;2023-09-19T01:03:20;29.02;;;19.50;;
21356;SDS011;10836;53.068;18.234;2023-09-19T01:05:47;26.02;;;19.20;;
21356;SDS011;10836;53.068;18.234;2023-09-19T01:08:14;28.00;;;19.15;;
21356;SDS011;10836;53.068;18.234;2023-09-19T01:10:44;23.27;;;18.40;;
21356;SDS011;10836;53.068;18.234;2023-09-19T01:13:42;26.25;;;17.60;;
21356;SDS011;10836;53.068;18.234;2023-09-19T01:16:26;22.90;;;16.02;;
21356;SDS011;10836;53.068;18.234;2023-09-19T01:19:07;17.13;;;13.10;;
21356;SDS011;10836;53.068;18.234;2023-09-19T01:30:13;11.88;;;8.43;;
21356;SDS011;10836;53.068;18.234;2023-09-19T01:32:44;13.38;;;7.90;;
21356;SDS011;10836;53.068;18.234;2023-09-19T01:35:13;14.07;;;8.82;;
21356;SDS011;10836;53.068;18.234;2023-09-19T01:37:40;15.10;;;8.50;;
21356;SDS011;10836;53.068;18.234;2023-09-19T01:40:14;12.45;;;8.48;;
21356;SDS011;10836;53.068;18.234;2023-09-19T01:42:53;15.80;;;7.93;;
21356;SDS011;10836;53.068;18.234;2023-09-19T01:45:37;15.68;;;7.75;;
21356;SDS011;10836;53.068;18.234;2023-09-19T01:51:02;12.27;;;7.85;;
21356;SDS011;10836;53.068;18.234;2023-09-19T01:56:32;12.27;;;7.53;;
21356;SDS011;10836;53.068;18.234;2023-09-19T01:59:08;15.93;;;7.63;;
21356;SDS011;10836;53.068;18.234;2023-09-19T02:01:39;12.88;;;7.80;;
21356;SDS011;10836;53.068;18.234;2023-09-19T02:04:11;12.13;;;7.10;;
21356;SDS011;10836;53.068;18.234;2023-09-19T02:06:39;14.05;;;7.03;;
21356;SDS011;10836;53.068;18.234;2023-09-19T02:09:07;9.73;;;6.63;;
21356;SDS011;10836;53.068;18.234;2023-09-19T02:11:35;15.00;;;7.50;;
21356;SDS011;10836;53.068;18.234;2023-09-19T02:14:03;13.45;;;7.15;;
21356;SDS011;10836;53.068;18.234;2023-09-19T02:16:31;9.65;;;6.47;;
21356;SDS011;10836;53.068;18.234;2023-09-19T02:18:58;10.35;;;5.97;;
21356;SDS011;10836;53.068;18.234;2023-09-19T02:21:26;8.32;;;5.78;;
21356;SDS011;10836;53.068;18.234;2023-09-19T02:23:56;11.27;;;5.57;;
21356;SDS011;10836;53.068;18.234;2023-09-19T02:26:23;8.00;;;5.55;;
21356;SDS011;10836;53.068;18.234;2023-09-19T02:28:50;10.68;;;6.30;;
21356;SDS011;10836;53.068;18.234;2023-09-19T02:31:17;15.77;;;5.90;;
21356;SDS011;10836;53.068;18.234;2023-09-19T02:33:45;9.80;;;5.90;;
21356;SDS011;10836;53.068;18.234;2023-09-19T02:36:13;12.27;;;5.95;;
21356;SDS011;10836;53.068;18.234;2023-09-19T02:38:44;11.82;;;6.18;;
21356;SDS011;10836;53.068;18.234;2023-09-19T02:41:11;14.32;;;5.88;;
21356;SDS011;10836;53.068;18.234;2023-09-19T02:43:38;12.63;;;5.85;;
21356;SDS011;10836;53.068;18.234;2023-09-19T02:46:06;12.35;;;5.53;;
21356;SDS011;10836;53.068;18.234;2023-09-19T02:48:33;11.07;;;5.80;;
21356;SDS011;10836;53.068;18.234;2023-09-19T02:51:02;8.63;;;5.35;;
21356;SDS011;10836;53.068;18.234;2023-09-19T02:53:32;10.98;;;6.00;;
21356;SDS011;10836;53.068;18.234;2023-09-19T02:55:59;14.18;;;5.65;;
21356;SDS011;10836;53.068;18.234;2023-09-19T02:58:26;11.63;;;5.63;;
21356;SDS011;10836;53.068;18.234;2023-09-19T03:00:54;11.77;;;5.63;;
21356;SDS011;10836;53.068;18.234;2023-09-19T03:03:23;10.85;;;6.40;;
21356;SDS011;10836;53.068;18.234;2023-09-19T03:05:50;13.18;;;6.35;;
21356;SDS011;10836;53.068;18.234;2023-09-19T03:08:21;14.68;;;6.90;;
21356;SDS011;10836;53.068;18.234;2023-09-19T03:10:48;9.48;;;6.15;;
21356;SDS011;10836;53.068;18.234;2023-09-19T03:13:16;12.95;;;7.30;;
21356;SDS011;10836;53.068;18.234;2023-09-19T03:15:43;14.38;;;8.00;;
21356;SDS011;10836;53.068;18.234;2023-09-19T03:18:20;11.15;;;7.10;;
21356;SDS011;10836;53.068;18.234;2023-09-19T03:20:52;23.77;;;9.40;;
21356;SDS011;10836;53.068;18.234;2023-09-19T03:23:22;16.45;;;8.13;;
21356;SDS011;10836;53.068;18.234;2023-09-19T03:25:50;14.25;;;8.73;;
21356;SDS011;10836;53.068;18.234;2023-09-19T03:28:17;16.33;;;8.32;;
21356;SDS011;10836;53.068;18.234;2023-09-19T03:30:44;13.98;;;8.10;;
21356;SDS011;10836;53.068;18.234;2023-09-19T03:33:11;13.15;;;7.22;;
21356;SDS011;10836;53.068;18.234;2023-09-19T03:35:39;16.23;;;7.97;;
21356;SDS011;10836;53.068;18.234;2023-09-19T03:38:06;18.17;;;8.02;;
21356;SDS011;10836;53.068;18.234;2023-09-19T03:40:33;15.48;;;8.05;;
21356;SDS011;10836;53.068;18.234;2023-09-19T03:43:01;14.68;;;8.10;;
21356;SDS011;10836;53.068;18.234;2023-09-19T03:45:29;14.52;;;8.82;;
21356;SDS011;10836;53.068;18.234;2023-09-19T03:47:56;15.68;;;8.07;;
21356;SDS011;10836;53.068;18.234;2023-09-19T03:50:24;13.38;;;8.32;;
21356;SDS011;10836;53.068;18.234;2023-09-19T03:52:55;18.20;;;7.82;;
21356;SDS011;10836;53.068;18.234;2023-09-19T03:55:23;13.98;;;8.38;;
21356;SDS011;10836;53.068;18.234;2023-09-19T03:57:50;15.00;;;7.50;;
21356;SDS011;10836;53.068;18.234;2023-09-19T04:00:18;23.75;;;8.60;;
21356;SDS011;10836;53.068;18.234;2023-09-19T04:02:48;18.98;;;8.18;;
21356;SDS011;10836;53.068;18.234;2023-09-19T04:05:16;17.55;;;8.02;;
21356;SDS011;10836;53.068;18.234;2023-09-19T04:07:43;13.77;;;7.72;;
21356;SDS011;10836;53.068;18.234;2023-09-19T04:10:28;16.55;;;7.30;;
21356;SDS011;10836;53.068;18.234;2023-09-19T04:12:56;12.70;;;7.90;;
21356;SDS011;10836;53.068;18.234;2023-09-19T04:15:23;16.60;;;9.02;;
21356;SDS011;10836;53.068;18.234;2023-09-19T04:17:54;19.00;;;8.13;;
21356;SDS011;10836;53.068;18.234;2023-09-19T04:20:21;16.95;;;8.00;;
21356;SDS011;10836;53.068;18.234;2023-09-19T04:22:51;18.85;;;8.23;;
21356;SDS011;10836;53.068;18.234;2023-09-19T04:25:19;16.60;;;8.68;;
21356;SDS011;10836;53.068;18.234;2023-09-19T04:27:46;14.15;;;7.68;;
21356;SDS011;10836;53.068;18.234;2023-09-19T04:30:14;15.27;;;7.93;;
21356;SDS011;10836;53.068;18.234;2023-09-19T04:32:41;12.85;;;7.80;;
21356;SDS011;10836;53.068;18.234;2023-09-19T04:35:09;15.85;;;7.72;;
21356;SDS011;10836;53.068;18.234;2023-09-19T04:37:37;12.68;;;7.70;;
21356;SDS011;10836;53.068;18.234;2023-09-19T04:40:06;17.27;;;7.88;;
21356;SDS011;10836;53.068;18.234;2023-09-19T04:42:40;13.15;;;7.32;;
21356;SDS011;10836;53.068;18.234;2023-09-19T04:45:07;13.50;;;7.28;;
21356;SDS011;10836;53.068;18.234;2023-09-19T04:47:38;12.27;;;6.85;;
21356;SDS011;10836;53.068;18.234;2023-09-19T04:50:06;10.07;;;6.93;;
21356;SDS011;10836;53.068;18.234;2023-09-19T04:52:39;12.25;;;7.50;;
21356;SDS011;10836;53.068;18.234;2023-09-19T04:55:27;16.15;;;6.90;;
21356;SDS011;10836;53.068;18.234;2023-09-19T04:57:54;16.05;;;7.15;;
21356;SDS011;10836;53.068;18.234;2023-09-19T05:00:22;11.98;;;7.05;;
21356;SDS011;10836;53.068;18.234;2023-09-19T05:02:56;15.07;;;7.53;;
21356;SDS011;10836;53.068;18.234;2023-09-19T05:05:24;13.32;;;7.40;;
21356;SDS011;10836;53.068;18.234;2023-09-19T05:07:53;12.73;;;7.40;;
21356;SDS011;10836;53.068;18.234;2023-09-19T05:10:22;14.52;;;7.43;;
21356;SDS011;10836;53.068;18.234;2023-09-19T05:12:52;13.75;;;6.65;;
21356;SDS011;10836;53.068;18.234;2023-09-19T05:15:20;18.05;;;7.47;;
21356;SDS011;10836;53.068;18.234;2023-09-19T05:17:48;13.77;;;7.00;;
21356;SDS011;10836;53.068;18.234;2023-09-19T05:20:21;12.40;;;6.75;;
21356;SDS011;10836;53.068;18.234;2023-09-19T05:22:57;14.35;;;7.00;;
21356;SDS011;10836;53.068;18.234;2023-09-19T05:25:35;15.73;;;6.82;;
21356;SDS011;10836;53.068;18.234;2023-09-19T05:28:07;12.63;;;6.20;;
21356;SDS011;10836;53.068;18.234;2023-09-19T05:30:37;12.45;;;6.93;;
21356;SDS011;10836;53.068;18.234;2023-09-19T05:33:05;13.63;;;7.10;;
21356;SDS011;10836;53.068;18.234;2023-09-19T05:35:32;13.98;;;7.13;;
21356;SDS011;10836;53.068;18.234;2023-09-19T05:38:00;13.40;;;6.88;;
21356;SDS011;10836;53.068;18.234;2023-09-19T05:40:27;13.73;;;7.10;;
21356;SDS011;10836;53.068;18.234;2023-09-19T05:42:54;13.32;;;6.90;;
21356;SDS011;10836;53.068;18.234;2023-09-19T05:45:21;13.35;;;6.72;;
21356;SDS011;10836;53.068;18.234;2023-09-19T05:47:51;11.35;;;6.30;;
21356;SDS011;10836;53.068;18.234;2023-09-19T05:50:22;12.68;;;6.60;;
21356;SDS011;10836;53.068;18.234;2023-09-19T05:52:51;11.82;;;6.70;;
21356;SDS011;10836;53.068;18.234;2023-09-19T05:55:19;13.80;;;6.70;;
21356;SDS011;10836;53.068;18.234;2023-09-19T05:57:51;15.85;;;7.15;;
21356;SDS011;10836;53.068;18.234;2023-09-19T06:00:19;14.18;;;6.88;;
21356;SDS011;10836;53.068;18.234;2023-09-19T06:02:53;9.80;;;6.60;;
21356;SDS011;10836;53.068;18.234;2023-09-19T06:05:21;9.68;;;6.10;;
21356;SDS011;10836;53.068;18.234;2023-09-19T06:07:48;12.80;;;6.20;;
21356;SDS011;10836;53.068;18.234;2023-09-19T06:10:17;13.88;;;6.72;;
21356;SDS011;10836;53.068;18.234;2023-09-19T06:12:44;12.80;;;5.72;;
21356;SDS011;10836;53.068;18.234;2023-09-19T06:15:12;10.15;;;6.10;;
21356;SDS011;10836;53.068;18.234;2023-09-19T06:17:43;9.02;;;5.22;;
21356;SDS011;10836;53.068;18.234;2023-09-19T06:20:13;11.43;;;5.68;;
21356;SDS011;10836;53.068;18.234;2023-09-19T06:22:44;11.90;;;5.50;;
21356;SDS011;10836;53.068;18.234;2023-09-19T06:25:12;10.20;;;5.25;;
21356;SDS011;10836;53.068;18.234;2023-09-19T06:27:56;8.30;;;5.22;;
21356;SDS011;10836;53.068;18.234;2023-09-19T06:30:24;13.05;;;6.53;;
21356;SDS011;10836;53.068;18.234;2023-09-19T06:32:56;10.07;;;6.15;;
21356;SDS011;10836;53.068;18.234;2023-09-19T06:35:24;10.98;;;6.18;;
21356;SDS011;10836;53.068;18.234;2023-09-19T06:37:53;9.40;;;6.25;;
21356;SDS011;10836;53.068;18.234;2023-09-19T06:40:20;13.07;;;6.97;;
21356;SDS011;10836;53.068;18.234;2023-09-19T06:42:49;12.27;;;7.00;;
21356;SDS011;10836;53.068;18.234;2023-09-19T06:45:18;10.23;;;6.38;;
21356;SDS011;10836;53.068;18.234;2023-09-19T06:47:46;11.93;;;6.50;;
21356;SDS011;10836;53.068;18.234;2023-09-19T06:50:17;11.77;;;6.75;;
21356;SDS011;10836;53.068;18.234;2023-09-19T06:52:46;9.93;;;7.03;;
21356;SDS011;10836;53.068;18.234;2023-09-19T06:55:17;10.98;;;6.50;;
21356;SDS011;10836;53.068;18.234;2023-09-19T06:57:46;14.07;;;7.30;;
21356;SDS011;10836;53.068;18.234;2023-09-19T07:00:14;9.38;;;6.95;;
21356;SDS011;10836;53.068;18.234;2023-09-19T07:03:01;11.90;;;7.57;;
21356;SDS011;10836;53.068;18.234;2023-09-19T07:05:40;9.98;;;7.43;;
21356;SDS011;10836;53.068;18.234;2023-09-19T07:08:08;9.65;;;7.07;;
21356;SDS011;10836;53.068;18.234;2023-09-19T07:10:40;11.00;;;7.35;;
21356;SDS011;10836;53.068;18.234;2023-09-19T07:13:09;11.82;;;7.10;;
21356;SDS011;10836;53.068;18.234;2023-09-19T07:15:38;12.50;;;6.90;;
21356;SDS011;10836;53.068;18.234;2023-09-19T07:18:08;13.88;;;7.65;;
21356;SDS011;10836;53.068;18.234;2023-09-19T07:20:38;11.27;;;7.35;;
21356;SDS011;10836;53.068;18.234;2023-09-19T07:23:05;15.05;;;7.78;;
21356;SDS011;10836;53.068;18.234;2023-09-19T07:25:33;15.48;;;7.68;;
21356;SDS011;10836;53.068;18.234;2023-09-19T07:28:02;11.20;;;7.40;;
21356;SDS011;10836;53.068;18.234;2023-09-19T07:30:29;10.25;;;7.20;;
21356;SDS011;10836;53.068;18.234;2023-09-19T07:32:57;12.45;;;7.15;;
21356;SDS011;10836;53.068;18.234;2023-09-19T07:35:24;12.35;;;7.18;;
21356;SDS011;10836;53.068;18.234;2023-09-19T07:37:52;12.15;;;6.95;;
21356;SDS011;10836;53.068;18.234;2023-09-19T07:40:19;11.80;;;7.18;;
21356;SDS011;10836;53.068;18.234;2023-09-19T07:42:48;11.73;;;6.53;;
21356;SDS011;10836;53.068;18.234;2023-09-19T07:45:15;12.70;;;7.57;;
21356;SDS011;10836;53.068;18.234;2023-09-19T07:47:47;11.70;;;6.35;;
21356;SDS011;10836;53.068;18.234;2023-09-19T07:50:15;9.65;;;6.03;;
21356;SDS011;10836;53.068;18.234;2023-09-19T07:52:46;11.10;;;6.07;;
21356;SDS011;10836;53.068;18.234;2023-09-19T07:55:14;9.07;;;6.10;;
21356;SDS011;10836;53.068;18.234;2023-09-19T07:57:46;13.25;;;6.88;;
21356;SDS011;10836;53.068;18.234;2023-09-19T08:00:13;9.02;;;6.00;;
21356;SDS011;10836;53.068;18.234;2023-09-19T08:02:42;8.77;;;6.25;;
21356;SDS011;10836;53.068;18.234;2023-09-19T08:05:11;12.00;;;6.72;;
21356;SDS011;10836;53.068;18.234;2023-09-19T08:07:43;11.40;;;7.03;;
21356;SDS011;10836;53.068;18.234;2023-09-19T08:10:12;10.38;;;6.35;;
21356;SDS011;10836;53.068;18.234;2023-09-19T08:12:43;11.23;;;6.03;;
21356;SDS011;10836;53.068;18.234;2023-09-19T08:15:14;14.35;;;7.28;;
21356;SDS011;10836;53.068;18.234;2023-09-19T08:17:48;11.40;;;6.72;;
21356;SDS011;10836;53.068;18.234;2023-09-19T08:20:15;12.05;;;7.97;;
21356;SDS011;10836;53.068;18.234;2023-09-19T08:22:50;11.50;;;7.15;;
21356;SDS011;10836;53.068;18.234;2023-09-19T08:25:22;9.95;;;6.50;;
21356;SDS011;10836;53.068;18.234;2023-09-19T08:27:50;10.48;;;7.07;;
21356;SDS011;10836;53.068;18.234;2023-09-19T08:30:20;12.85;;;7.85;;
21356;SDS011;10836;53.068;18.234;2023-09-19T08:32:58;13.55;;;8.18;;
21356;SDS011;10836;53.068;18.234;2023-09-19T08:35:31;11.07;;;7.72;;
21356;SDS011;10836;53.068;18.234;2023-09-19T08:37:58;10.07;;;6.85;;
21356;SDS011;10836;53.068;18.234;2023-09-19T08:40:30;11.10;;;6.68;;
21356;SDS011;10836;53.068;18.234;2023-09-19T08:43:00;10.20;;;7.13;;
21356;SDS011;10836;53.068;18.234;2023-09-19T08:45:27;12.30;;;7.03;;
21356;SDS011;10836;53.068;18.234;2023-09-19T08:50:53;10.98;;;6.65;;
21356;SDS011;10836;53.068;18.234;2023-09-19T08:53:34;12.10;;;7.13;;
21356;SDS011;10836;53.068;18.234;2023-09-19T08:56:09;13.30;;;5.93;;
21356;SDS011;10836;53.068;18.234;2023-09-19T08:58:39;17.55;;;5.70;;
21356;SDS011;10836;53.068;18.234;2023-09-19T09:01:31;14.30;;;6.25;;
21356;SDS011;10836;53.068;18.234;2023-09-19T09:03:59;13.48;;;5.03;;
21356;SDS011;10836;53.068;18.234;2023-09-19T09:06:29;11.32;;;5.50;;
21356;SDS011;10836;53.068;18.234;2023-09-19T09:08:57;9.15;;;4.30;;
21356;SDS011;10836;53.068;18.234;2023-09-19T09:11:24;8.32;;;4.35;;
21356;SDS011;10836;53.068;18.234;2023-09-19T09:13:52;6.65;;;4.25;;
21356;SDS011;10836;53.068;18.234;2023-09-19T09:16:19;7.05;;;4.40;;
21356;SDS011;10836;53.068;18.234;2023-09-19T09:18:46;5.90;;;3.55;;
21356;SDS011;10836;53.068;18.234;2023-09-19T09:21:21;8.32;;;3.20;;
21356;SDS011;10836;53.068;18.234;2023-09-19T09:23:49;10.57;;;3.72;;
21356;SDS011;10836;53.068;18.234;2023-09-19T09:26:24;8.60;;;3.20;;
21356;SDS011;10836;53.068;18.234;2023-09-19T09:29:09;7.32;;;2.95;;
21356;SDS011;10836;53.068;18.234;2023-09-19T09:31:36;8.98;;;3.10;;
21356;SDS011;10836;53.068;18.234;2023-09-19T09:34:05;13.48;;;3.20;;
21356;SDS011;10836;53.068;18.234;2023-09-19T09:36:35;7.57;;;3.15;;
21356;SDS011;10836;53.068;18.234;2023-09-19T09:39:04;10.07;;;3.00;;
21356;SDS011;10836;53.068;18.234;2023-09-19T09:41:51;7.70;;;3.10;;
21356;SDS011;10836;53.068;18.234;2023-09-19T09:44:18;7.75;;;3.13;;
21356;SDS011;10836;53.068;18.234;2023-09-19T09:46:46;7.45;;;3.00;;
21356;SDS011;10836;53.068;18.234;2023-09-19T09:49:25;8.15;;;3.05;;
21356;SDS011;10836;53.068;18.234;2023-09-19T09:52:06;5.35;;;3.13;;
21356;SDS011;10836;53.068;18.234;2023-09-19T09:54:38;6.57;;;3.20;;
21356;SDS011;10836;53.068;18.234;2023-09-19T09:57:06;7.13;;;2.92;;
21356;SDS011;10836;53.068;18.234;2023-09-19T09:59:44;5.70;;;2.90;;
21356;SDS011;10836;53.068;18.234;2023-09-19T10:02:14;7.63;;;2.85;;
21356;SDS011;10836;53.068;18.234;2023-09-19T10:04:50;6.47;;;3.05;;
21356;SDS011;10836;53.068;18.234;2023-09-19T10:07:25;4.60;;;2.50;;
21356;SDS011;10836;53.068;18.234;2023-09-19T10:09:54;5.18;;;2.80;;
21356;SDS011;10836;53.068;18.234;2023-09-19T10:12:31;4.60;;;2.60;;
21356;SDS011;10836;53.068;18.234;2023-09-19T10:15:01;7.75;;;2.78;;
21356;SDS011;10836;53.068;18.234;2023-09-19T10:17:30;9.30;;;2.47;;
21356;SDS011;10836;53.068;18.234;2023-09-19T10:20:02;4.22;;;2.33;;
21356;SDS011;10836;53.068;18.234;2023-09-19T10:22:39;5.60;;;2.58;;
21356;SDS011;10836;53.068;18.234;2023-09-19T10:25:09;6.53;;;2.20;;
21356;SDS011;10836;53.068;18.234;2023-09-19T10:27:36;7.80;;;1.95;;
21356;SDS011;10836;53.068;18.234;2023-09-19T10:30:05;4.93;;;2.08;;
21356;SDS011;10836;53.068;18.234;2023-09-19T10:32:35;5.90;;;1.75;;
21356;SDS011;10836;53.068;18.234;2023-09-19T10:35:06;7.15;;;2.13;;
21356;SDS011;10836;53.068;18.234;2023-09-19T10:37:34;4.65;;;2.00;;
21356;SDS011;10836;53.068;18.234;2023-09-19T10:40:05;5.13;;;1.98;;
21356;SDS011;10836;53.068;18.234;2023-09-19T10:42:35;7.65;;;1.88;;
21356;SDS011;10836;53.068;18.234;2023-09-19T10:45:05;3.50;;;1.70;;
21356;SDS011;10836;53.068;18.234;2023-09-19T10:47:39;6.03;;;1.73;;
21356;SDS011;10836;53.068;18.234;2023-09-19T10:50:07;5.97;;;1.98;;
21356;SDS011;10836;53.068;18.234;2023-09-19T10:52:38;5.45;;;1.85;;
21356;SDS011;10836;53.068;18.234;2023-09-19T10:55:09;3.28;;;1.67;;
21356;SDS011;10836;53.068;18.234;2023-09-19T10:57:44;6.68;;;1.80;;
21356;SDS011;10836;53.068;18.234;2023-09-19T11:00:13;2.90;;;1.50;;
21356;SDS011;10836;53.068;18.234;2023-09-19T11:05:41;5.43;;;1.80;;
21356;SDS011;10836;53.068;18.234;2023-09-19T11:08:08;6.38;;;1.80;;
21356;SDS011;10836;53.068;18.234;2023-09-19T11:10:46;6.07;;;1.95;;
21356;SDS011;10836;53.068;18.234;2023-09-19T11:21:38;4.57;;;1.80;;
21356;SDS011;10836;53.068;18.234;2023-09-19T11:26:51;3.97;;;1.48;;
21356;SDS011;10836;53.068;18.234;2023-09-19T11:29:44;4.22;;;1.58;;
21356;SDS011;10836;53.068;18.234;2023-09-19T11:32:11;6.53;;;2.17;;
21356;SDS011;10836;53.068;18.234;2023-09-19T11:34:39;3.65;;;1.63;;
21356;SDS011;10836;53.068;18.234;2023-09-19T11:42:45;3.05;;;1.50;;
21356;SDS011;10836;53.068;18.234;2023-09-19T11:48:07;3.88;;;1.35;;
21356;SDS011;10836;53.068;18.234;2023-09-19T11:50:35;16.63;;;2.28;;
21356;SDS011;10836;53.068;18.234;2023-09-19T11:53:03;4.55;;;1.98;;
21356;SDS011;10836;53.068;18.234;2023-09-19T11:55:31;6.07;;;1.98;;
21356;SDS011;10836;53.068;18.234;2023-09-19T11:57:59;5.22;;;1.40;;
21356;SDS011;10836;53.068;18.234;2023-09-19T12:00:27;4.70;;;1.80;;
21356;SDS011;10836;53.068;18.234;2023-09-19T12:02:55;5.75;;;1.63;;
21356;SDS011;10836;53.068;18.234;2023-09-19T12:05:33;3.88;;;1.38;;
21356;SDS011;10836;53.068;18.234;2023-09-19T12:08:01;4.65;;;1.33;;
21356;SDS011;10836;53.068;18.234;2023-09-19T12:10:31;3.33;;;1.40;;
21356;SDS011;10836;53.068;18.234;2023-09-19T12:12:58;5.18;;;1.70;;
21356;SDS011;10836;53.068;18.234;2023-09-19T12:15:26;4.28;;;1.67;;
21356;SDS011;10836;53.068;18.234;2023-09-19T12:18:00;2.78;;;1.45;;
21356;SDS011;10836;53.068;18.234;2023-09-19T12:20:43;8.15;;;2.00;;
21356;SDS011;10836;53.068;18.234;2023-09-19T12:23:16;4.43;;;1.67;;
21356;SDS011;10836;53.068;18.234;2023-09-19T12:25:44;7.22;;;1.48;;
21356;SDS011;10836;53.068;18.234;2023-09-19T12:28:14;5.85;;;1.90;;
21356;SDS011;10836;53.068;18.234;2023-09-19T12:30:43;5.25;;;1.67;;
21356;SDS011;10836;53.068;18.234;2023-09-19T12:33:17;6.75;;;1.67;;
21356;SDS011;10836;53.068;18.234;2023-09-19T12:35:53;7.70;;;1.73;;
21356;SDS011;10836;53.068;18.234;2023-09-19T12:38:26;4.80;;;1.70;;
21356;SDS011;10836;53.068;18.234;2023-09-19T12:41:01;6.05;;;1.70;;
21356;SDS011;10836;53.068;18.234;2023-09-19T12:43:30;7.45;;;2.22;;
21356;SDS011;10836;53.068;18.234;2023-09-19T12:46:02;6.90;;;1.70;;
21356;SDS011;10836;53.068;18.234;2023-09-19T12:48:31;6.68;;;1.70;;
21356;SDS011;10836;53.068;18.234;2023-09-19T12:53:45;3.88;;;1.85;;
21356;SDS011;10836;53.068;18.234;2023-09-19T12:56:15;4.50;;;1.83;;
21356;SDS011;10836;53.068;18.234;2023-09-19T13:01:25;5.95;;;1.80;;
21356;SDS011;10836;53.068;18.234;2023-09-19T13:06:52;5.97;;;1.58;;
21356;SDS011;10836;53.068;18.234;2023-09-19T13:09:20;7.28;;;1.90;;
21356;SDS011;10836;53.068;18.234;2023-09-19T13:11:49;7.70;;;1.95;;
21356;SDS011;10836;53.068;18.234;2023-09-19T13:14:21;7.00;;;1.60;;
21356;SDS011;10836;53.068;18.234;2023-09-19T13:17:03;5.22;;;1.70;;
21356;SDS011;10836;53.068;18.234;2023-09-19T13:19:50;7.03;;;1.67;;
21356;SDS011;10836;53.068;18.234;2023-09-19T13:22:41;6.30;;;1.60;;
21356;SDS011;10836;53.068;18.234;2023-09-19T13:25:18;6.40;;;1.63;;
21356;SDS011;10836;53.068;18.234;2023-09-19T13:27:49;5.57;;;1.70;;
21356;SDS011;10836;53.068;18.234;2023-09-19T13:30:24;5.53;;;1.63;;
21356;SDS011;10836;53.068;18.234;2023-09-19T13:33:03;4.13;;;1.85;;
21356;SDS011;10836;53.068;18.234;2023-09-19T13:35:33;5.50;;;1.70;;
21356;SDS011;10836;53.068;18.234;2023-09-19T13:38:01;5.35;;;2.10;;
21356;SDS011;10836;53.068;18.234;2023-09-19T13:40:28;7.25;;;2.42;;
21356;SDS011;10836;53.068;18.234;2023-09-19T13:42:58;6.50;;;2.40;;
21356;SDS011;10836;53.068;18.234;2023-09-19T13:45:26;9.02;;;2.67;;
21356;SDS011;10836;53.068;18.234;2023-09-19T13:47:57;7.88;;;2.35;;
21356;SDS011;10836;53.068;18.234;2023-09-19T13:50:26;8.68;;;2.30;;
21356;SDS011;10836;53.068;18.234;2023-09-19T13:52:55;7.25;;;2.70;;
21356;SDS011;10836;53.068;18.234;2023-09-19T13:55:23;6.80;;;2.33;;
21356;SDS011;10836;53.068;18.234;2023-09-19T13:57:51;8.32;;;2.45;;
21356;SDS011;10836;53.068;18.234;2023-09-19T14:00:23;8.55;;;2.22;;
21356;SDS011;10836;53.068;18.234;2023-09-19T14:02:50;4.45;;;2.42;;
21356;SDS011;10836;53.068;18.234;2023-09-19T14:05:19;4.63;;;2.30;;
21356;SDS011;10836;53.068;18.234;2023-09-19T14:07:47;6.75;;;1.50;;
21356;SDS011;10836;53.068;18.234;2023-09-19T14:10:15;6.40;;;1.90;;
21356;SDS011;10836;53.068;18.234;2023-09-19T14:12:44;4.38;;;2.20;;
21356;SDS011;10836;53.068;18.234;2023-09-19T14:15:12;4.65;;;2.35;;
21356;SDS011;10836;53.068;18.234;2023-09-19T14:17:42;4.97;;;2.08;;
21356;SDS011;10836;53.068;18.234;2023-09-19T14:20:09;6.80;;;2.60;;
21356;SDS011;10836;53.068;18.234;2023-09-19T14:22:37;5.45;;;2.20;;
21356;SDS011;10836;53.068;18.234;2023-09-19T14:25:04;4.10;;;2.10;;
21356;SDS011;10836;53.068;18.234;2023-09-19T14:27:32;4.97;;;2.03;;
21356;SDS011;10836;53.068;18.234;2023-09-19T14:29:59;6.78;;;2.78;;
21356;SDS011;10836;53.068;18.234;2023-09-19T14:32:26;9.38;;;2.30;;
21356;SDS011;10836;53.068;18.234;2023-09-19T14:34:53;6.57;;;2.47;;
21356;SDS011;10836;53.068;18.234;2023-09-19T14:37:20;5.88;;;2.15;;
21356;SDS011;10836;53.068;18.234;2023-09-19T14:39:49;8.85;;;2.80;;
21356;SDS011;10836;53.068;18.234;2023-09-19T14:42:16;6.88;;;2.58;;
21356;SDS011;10836;53.068;18.234;2023-09-19T14:44:45;7.13;;;2.38;;
21356;SDS011;10836;53.068;18.234;2023-09-19T14:47:14;6.30;;;2.55;;
21356;SDS011;10836;53.068;18.234;2023-09-19T14:49:41;7.55;;;2.40;;
21356;SDS011;10836;53.068;18.234;2023-09-19T14:52:08;9.45;;;2.80;;
21356;SDS011;10836;53.068;18.234;2023-09-19T14:54:36;7.18;;;2.70;;
21356;SDS011;10836;53.068;18.234;2023-09-19T14:57:08;6.60;;;2.45;;
21356;SDS011;10836;53.068;18.234;2023-09-19T14:59:35;9.95;;;2.40;;
21356;SDS011;10836;53.068;18.234;2023-09-19T15:02:05;7.13;;;2.83;;
21356;SDS011;10836;53.068;18.234;2023-09-19T15:04:33;5.78;;;2.60;;
21356;SDS011;10836;53.068;18.234;2023-09-19T15:07:01;5.97;;;2.28;;
21356;SDS011;10836;53.068;18.234;2023-09-19T15:09:29;5.18;;;2.75;;
21356;SDS011;10836;53.068;18.234;2023-09-19T15:11:58;10.27;;;2.88;;
21356;SDS011;10836;53.068;18.234;2023-09-19T15:14:26;6.50;;;2.85;;
21356;SDS011;10836;53.068;18.234;2023-09-19T15:16:53;8.20;;;2.92;;
21356;SDS011;10836;53.068;18.234;2023-09-19T15:19:20;8.18;;;3.28;;
21356;SDS011;10836;53.068;18.234;2023-09-19T15:21:49;9.80;;;2.72;;
21356;SDS011;10836;53.068;18.234;2023-09-19T15:24:16;6.55;;;3.17;;
21356;SDS011;10836;53.068;18.234;2023-09-19T15:26:44;4.65;;;2.63;;
21356;SDS011;10836;53.068;18.234;2023-09-19T15:29:13;8.35;;;2.60;;
21356;SDS011;10836;53.068;18.234;2023-09-19T15:31:40;6.47;;;2.90;;